Cerusti, Russia
Current Conditions -  °F | °C
As of 10:00 AM on Sunday 26 Oct 2014 (Local Time) from UUDD Reporting Station
Clear Clear  
Wind Chill: 16°   Ceiling: Unl
Heat Index: 27°   Visibility: 6mi
Dew Point: 14°   Wind: 11mph
Humidity: 59%   Direction: 250°WSW
Pressure: 30.56"   Gusts: 22mph
Location:  55.55°N, 40.02°E
Report Text: UUDD 260700Z 25005G10MPS CAVOK M03/M10 Q1035 32150095 82150095NOSIG
Loading
Personal Weather Stations






























Interactive Weather Map
Tropical Storm Tracking
New forecast layout! Learn more

10-Day Weather Forecast

Advertisements
Track Severe Weather on mobile